Terminal Aerodrome Forecast
Issued by NWS

Home | Current Version | Previous Version | Text Only | Print | Product List | Glossary On
Versions: 1 2 3 4 5 6 7 8 9 10 11 12 13
521
FTUS45 KABQ 281120
TAFLVS
TAF
KLVS 281120Z 2812/0112 23028G38KT P6SM OVC100
     FM281600 22034G43KT P6SM OVC080
     FM281800 26040G50KT P6SM VCSH BKN050
     FM282100 27026G38KT P6SM BKN070
     FM010200 30012G21KT P6SM SKC=

USA.gov is the U.S. government's official web portal to all federal, state and local government web resources and services.